Time;durP1;ratioP1;P1;durP2;ratioP2;P2;SDS_P1;SDS_P2;PMS_P1;PMS_P2;Temp;Humidity;BMP_temperature;BMP_pressure;BME280_temperature;BME280_humidity;BME280_pressure;Samples;Min_cycle;Max_cycle;Signal;HPM_P1;HPM_P2
2021/04/02 00:01:30;;;;;;;13.27;9.50;;;23.90;33.10;;;;;;5046944;28;20263;-43
2021/04/02 00:03:56;;;;;;;12.37;7.27;;;23.80;33.20;;;;;;5049518;28;20233;-45
2021/04/02 00:06:21;;;;;;;15.47;10.47;;;23.70;33.30;;;;;;5040369;28;20592;-43
2021/04/02 00:08:47;;;;;;;16.07;8.87;;;23.70;33.30;;;;;;5031986;28;20241;-43
2021/04/02 00:11:13;;;;;;;10.77;8.07;;;23.60;33.30;;;;;;5046677;28;20204;-42
2021/04/02 00:13:46;;;;;;;10.40;8.50;;;23.70;33.40;;;;;;5039077;28;20301;-44
2021/04/02 00:16:14;;;;;;;19.73;9.07;;;23.70;33.30;;;;;;5049010;28;20283;-43
2021/04/02 00:18:40;;;;;;;11.20;8.70;;;23.50;33.40;;;;;;5039901;28;20447;-42
2021/04/02 00:21:07;;;;;;;11.10;8.70;;;23.50;33.70;;;;;;5046360;28;20799;-42
2021/04/02 00:23:34;;;;;;;12.80;9.67;;;23.40;33.70;;;;;;5037148;28;20278;-43
2021/04/02 00:26:00;;;;;;;18.17;13.30;;;23.40;33.80;;;;;;5043695;28;20473;-45
2021/04/02 00:28:27;;;;;;;9.57;8.57;;;23.40;33.80;;;;;;5037679;28;20466;-43
2021/04/02 00:30:57;;;;;;;10.53;9.13;;;23.40;33.80;;;;;;5048223;28;20454;-42
2021/04/02 00:33:26;;;;;;;13.07;10.10;;;23.40;33.90;;;;;;5044704;28;20493;-42
2021/04/02 00:35:52;;;;;;;14.80;12.17;;;23.40;33.80;;;;;;5041173;28;20842;-45
2021/04/02 00:38:19;;;;;;;14.03;10.93;;;23.40;33.90;;;;;;5037458;28;20468;-44
2021/04/02 00:40:49;;;;;;;11.73;10.00;;;23.40;34.00;;;;;;5036046;28;20455;-43
2021/04/02 00:43:15;;;;;;;11.03;9.50;;;23.40;33.90;;;;;;5038167;28;20440;-43
2021/04/02 00:45:41;;;;;;;12.43;8.83;;;23.30;33.90;;;;;;5051092;28;20547;-45
2021/04/02 00:48:07;;;;;;;11.50;8.57;;;23.30;34.10;;;;;;5042596;28;20603;-42
2021/04/02 00:50:44;;;;;;;11.10;9.17;;;23.20;34.10;;;;;;5039478;28;20193;-43
2021/04/02 00:53:11;;;;;;;15.10;10.40;;;23.20;34.20;;;;;;5044595;28;20441;-44
2021/04/02 00:55:39;;;;;;;18.53;13.57;;;23.20;34.30;;;;;;5046236;28;20443;-42
2021/04/02 00:58:07;;;;;;;11.70;9.07;;;23.10;34.40;;;;;;5038716;28;20520;-44
2021/04/02 01:00:33;;;;;;;12.60;9.77;;;23.00;34.60;;;;;;5036918;28;20581;-42
2021/04/02 01:02:59;;;;;;;13.00;9.60;;;22.90;34.80;;;;;;5035167;28;20534;-42
2021/04/02 01:05:29;;;;;;;13.87;10.07;;;22.90;34.80;;;;;;5033698;28;20900;-43
2021/04/02 01:07:59;;;;;;;13.83;9.50;;;22.90;34.80;;;;;;5047415;28;20470;-43
2021/04/02 01:10:26;;;;;;;11.73;8.90;;;22.90;34.70;;;;;;5046086;28;21024;-42
2021/04/02 01:12:58;;;;;;;15.57;9.80;;;22.90;34.70;;;;;;5031052;28;20455;-43
2021/04/02 01:15:32;;;;;;;12.40;10.80;;;23.00;34.80;;;;;;5038373;28;20454;-43
2021/04/02 01:18:00;;;;;;;13.70;10.67;;;23.00;34.70;;;;;;5041705;28;20821;-42
2021/04/02 01:20:31;;;;;;;15.73;11.00;;;23.00;34.70;;;;;;5032647;28;20838;-43
2021/04/02 01:23:00;;;;;;;15.27;10.80;;;22.90;34.60;;;;;;5038999;28;20451;-43
2021/04/02 01:25:37;;;;;;;18.60;10.80;;;22.90;34.60;;;;;;5042160;28;20419;-42
2021/04/02 01:28:10;;;;;;;15.20;10.30;;;22.90;34.80;;;;;;5037412;28;20486;-42
2021/04/02 01:30:40;;;;;;;13.67;9.77;;;22.80;34.80;;;;;;5047081;28;20447;-43
2021/04/02 01:33:07;;;;;;;11.13;9.60;;;22.90;34.80;;;;;;5037681;28;20462;-42
2021/04/02 01:35:35;;;;;;;14.30;10.10;;;22.90;34.70;;;;;;5040009;28;20484;-43
2021/04/02 01:38:32;;;;;;;17.73;11.33;;;22.90;34.70;;;;;;5042282;28;20458;-43
2021/04/02 01:41:01;;;;;;;13.53;9.03;;;23.00;34.80;;;;;;5031406;28;20512;-43
2021/04/02 01:43:42;;;;;;;12.10;8.83;;;22.90;34.70;;;;;;5042855;28;20443;-43
2021/04/02 01:46:09;;;;;;;10.43;9.23;;;22.90;34.80;;;;;;5038892;28;21400;-42
2021/04/02 01:48:38;;;;;;;11.00;8.63;;;22.90;34.80;;;;;;5037704;28;20530;-43
2021/04/02 01:51:05;;;;;;;10.07;8.43;;;22.90;34.80;;;;;;5044975;28;20558;-44
2021/04/02 01:53:35;;;;;;;9.83;7.83;;;22.90;34.80;;;;;;5039010;28;20808;-46
2021/04/02 01:56:03;;;;;;;9.83;8.47;;;22.90;34.70;;;;;;5038579;28;20455;-43
2021/04/02 01:58:32;;;;;;;7.43;6.73;;;22.80;34.80;;;;;;5039450;28;20549;-42
2021/04/02 02:01:00;;;;;;;10.10;6.93;;;22.80;35.00;;;;;;5042443;28;20824;-42
2021/04/02 02:03:27;;;;;;;8.10;5.90;;;22.80;35.00;;;;;;5037336;28;20447;-43
2021/04/02 02:05:55;;;;;;;13.67;6.73;;;22.80;35.00;;;;;;5039158;28;20475;-42
2021/04/02 02:08:22;;;;;;;7.20;5.53;;;22.80;35.00;;;;;;5034553;28;20488;-42
2021/04/02 02:10:55;;;;;;;6.23;5.20;;;22.70;34.90;;;;;;5043011;28;20474;-42
2021/04/02 02:13:22;;;;;;;4.80;4.23;;;22.70;34.90;;;;;;5040966;28;20451;-42
2021/04/02 02:15:49;;;;;;;6.20;4.60;;;22.70;35.00;;;;;;5035247;28;20451;-43
2021/04/02 02:18:16;;;;;;;6.30;5.33;;;22.70;34.90;;;;;;5035359;28;20447;-42
2021/04/02 02:20:44;;;;;;;7.53;4.33;;;22.70;35.00;;;;;;5036739;28;20451;-42
2021/04/02 02:23:10;;;;;;;4.90;4.10;;;22.70;34.90;;;;;;5040277;28;20443;-42
2021/04/02 02:25:36;;;;;;;9.63;5.63;;;22.70;34.90;;;;;;5042279;28;20483;-42
2021/04/02 02:28:03;;;;;;;4.33;3.77;;;22.70;34.90;;;;;;5044704;28;20204;-42
2021/04/02 02:30:31;;;;;;;7.30;4.90;;;22.70;34.90;;;;;;5040796;28;20450;-42
2021/04/02 02:32:57;;;;;;;4.40;3.97;;;22.70;34.90;;;;;;5035652;28;20447;-42
2021/04/02 02:35:23;;;;;;;6.90;4.37;;;22.70;34.80;;;;;;5031497;28;20448;-43
2021/04/02 02:37:51;;;;;;;7.27;4.13;;;22.70;34.90;;;;;;5036864;28;20439;-42
2021/04/02 02:40:23;;;;;;;5.40;3.60;;;22.70;34.80;;;;;;5040720;28;20447;-42
2021/04/02 02:42:53;;;;;;;7.43;4.80;;;22.70;34.80;;;;;;5045010;28;20450;-42
2021/04/02 02:45:19;;;;;;;6.63;4.03;;;22.70;34.80;;;;;;5041727;28;20453;-45
2021/04/02 02:47:45;;;;;;;7.70;4.73;;;22.70;34.80;;;;;;5035423;28;20492;-43
2021/04/02 02:50:34;;;;;;;4.73;4.33;;;22.70;34.90;;;;;;5044402;28;20498;-43
2021/04/02 02:53:01;;;;;;;5.93;4.80;;;22.60;34.80;;;;;;5034767;28;20793;-42
2021/04/02 02:55:30;;;;;;;5.40;4.90;;;22.70;34.90;;;;;;5034041;28;20446;-45
2021/04/02 02:57:58;;;;;;;7.50;5.30;;;22.60;34.80;;;;;;5035711;28;20987;-42
2021/04/02 03:00:28;;;;;;;14.47;9.77;;;22.60;35.00;;;;;;5045665;28;20446;-42
2021/04/02 03:02:57;;;;;;;13.93;10.00;;;22.60;35.10;;;;;;5035279;28;20444;-42
2021/04/02 03:05:26;;;;;;;13.27;10.10;;;22.50;34.80;;;;;;5042436;28;20443;-44
2021/04/02 03:07:56;;;;;;;17.27;9.63;;;22.10;35.20;;;;;;5042403;28;20993;-42
2021/04/02 03:10:22;;;;;;;10.60;8.83;;;21.60;35.70;;;;;;5042510;28;20447;-43
2021/04/02 03:12:49;;;;;;;13.17;9.17;;;21.10;36.30;;;;;;5048557;28;20966;-44
2021/04/02 03:15:18;;;;;;;10.60;7.30;;;20.70;37.00;;;;;;5053229;28;20982;-43
2021/04/02 03:17:49;;;;;;;10.50;8.27;;;20.30;37.60;;;;;;5043454;28;20445;-44
2021/04/02 03:20:16;;;;;;;11.50;9.63;;;19.90;38.30;;;;;;5048505;28;20442;-44
2021/04/02 03:22:42;;;;;;;13.90;9.00;;;19.60;38.90;;;;;;5038357;28;20450;-42
2021/04/02 03:25:11;;;;;;;10.20;8.90;;;19.30;39.40;;;;;;5041245;28;20460;-42
2021/04/02 03:27:40;;;;;;;9.93;7.60;;;19.10;40.00;;;;;;5038747;28;21132;-43
2021/04/02 03:30:11;;;;;;;10.80;7.67;;;18.90;40.30;;;;;;5033338;28;20968;-46
2021/04/02 03:32:40;;;;;;;10.03;6.80;;;18.70;40.60;;;;;;5046644;28;20439;-43
2021/04/02 03:35:07;;;;;;;11.57;8.03;;;18.50;40.80;;;;;;5048375;28;20572;-43
2021/04/02 03:37:36;;;;;;;12.37;7.60;;;18.40;41.20;;;;;;5041818;28;20481;-42
2021/04/02 03:40:06;;;;;;;9.83;6.97;;;18.20;41.40;;;;;;5032534;28;20788;-45
2021/04/02 03:42:32;;;;;;;9.17;6.60;;;18.10;41.70;;;;;;5048639;28;20446;-42
2021/04/02 03:44:59;;;;;;;9.13;6.40;;;18.00;41.80;;;;;;5040746;28;20446;-44
2021/04/02 03:47:27;;;;;;;9.90;6.37;;;17.90;41.90;;;;;;5034020;28;20526;-43
2021/04/02 03:49:55;;;;;;;7.00;4.97;;;17.70;42.00;;;;;;5039303;28;20940;-44
2021/04/02 03:52:30;;;;;;;6.60;4.60;;;17.60;42.10;;;;;;5039105;28;20969;-43
2021/04/02 03:54:57;;;;;;;4.80;4.40;;;17.50;42.20;;;;;;5035681;28;20447;-44
2021/04/02 03:57:25;;;;;;;4.80;4.33;;;17.50;42.20;;;;;;5037403;28;20450;-43
2021/04/02 03:59:53;;;;;;;5.33;4.77;;;17.40;42.10;;;;;;5033079;28;20918;-43
2021/04/02 04:02:20;;;;;;;9.80;4.53;;;17.30;42.20;;;;;;5030812;28;20963;-43
2021/04/02 04:04:47;;;;;;;4.17;3.70;;;17.20;42.30;;;;;;5037628;28;20447;-45
2021/04/02 04:07:14;;;;;;;5.80;4.57;;;17.10;42.40;;;;;;5040821;28;20483;-44
2021/04/02 04:09:41;;;;;;;6.60;4.27;;;17.00;42.70;;;;;;5049545;28;20496;-43
2021/04/02 04:12:10;;;;;;;10.03;4.80;;;16.90;42.70;;;;;;5048637;28;20954;-42
2021/04/02 04:14:38;;;;;;;4.83;4.10;;;16.80;42.70;;;;;;5045703;28;20976;-45
2021/04/02 04:17:05;;;;;;;4.10;3.80;;;16.80;42.80;;;;;;5043170;28;20937;-43
2021/04/02 04:19:32;;;;;;;4.10;3.70;;;16.70;42.60;;;;;;5051721;28;20860;-44
2021/04/02 04:21:59;;;;;;;7.37;4.63;;;16.70;42.70;;;;;;5047449;28;20865;-44
2021/04/02 04:24:28;;;;;;;5.00;3.93;;;16.60;42.40;;;;;;5043212;28;20446;-47
2021/04/02 04:26:55;;;;;;;5.60;4.57;;;16.50;42.40;;;;;;5038881;28;20841;-43
2021/04/02 04:29:41;;;;;;;7.00;4.50;;;16.50;42.40;;;;;;5045236;28;20451;-43
2021/04/02 04:32:09;;;;;;;8.83;4.17;;;16.50;42.20;;;;;;5029898;28;20980;-42
2021/04/02 04:34:37;;;;;;;7.17;3.97;;;16.30;42.10;;;;;;5039647;28;20519;-42
2021/04/02 04:37:04;;;;;;;3.93;3.43;;;16.30;42.10;;;;;;5044347;28;20950;-45
2021/04/02 04:39:31;;;;;;;4.50;3.70;;;16.20;42.00;;;;;;5047445;28;20442;-46
2021/04/02 04:41:58;;;;;;;8.03;4.70;;;16.10;42.00;;;;;;5044640;28;20435;-42
2021/04/02 04:44:27;;;;;;;5.80;3.93;;;16.00;41.90;;;;;;5033992;28;20476;-42
2021/04/02 04:46:53;;;;;;;5.47;3.50;;;16.00;41.70;;;;;;5036326;28;20825;-44
2021/04/02 04:49:18;;;;;;;9.97;4.70;;;16.00;41.80;;;;;;5039524;28;20447;-45
2021/04/02 04:51:47;;;;;;;6.30;4.10;;;15.90;41.60;;;;;;5035274;28;20514;-43
2021/04/02 04:54:13;;;;;;;4.63;4.20;;;15.80;41.60;;;;;;5044445;28;20215;-43
2021/04/02 04:56:40;;;;;;;4.20;3.40;;;15.70;41.40;;;;;;5038311;28;20439;-43
2021/04/02 04:59:09;;;;;;;4.70;3.67;;;15.60;41.40;;;;;;5047328;28;20439;-43
2021/04/02 05:01:40;;;;;;;4.40;3.70;;;15.60;41.50;;;;;;5038673;28;20500;-42
2021/04/02 05:04:08;;;;;;;3.97;3.30;;;15.20;42.00;;;;;;5045891;28;20444;-42
2021/04/02 05:06:35;;;;;;;5.93;4.40;;;15.10;42.20;;;;;;5048090;28;20493;-42
2021/04/02 05:09:03;;;;;;;6.20;5.00;;;15.10;42.30;;;;;;5040754;28;20478;-42
2021/04/02 05:11:32;;;;;;;4.97;3.93;;;15.10;42.20;;;;;;5048322;28;20450;-42
2021/04/02 05:13:59;;;;;;;6.17;4.20;;;15.20;42.10;;;;;;5049471;28;20950;-42
2021/04/02 05:16:25;;;;;;;8.57;4.07;;;15.10;42.00;;;;;;5039228;28;20443;-44
2021/04/02 05:18:52;;;;;;;8.57;4.70;;;15.10;42.00;;;;;;5038188;28;20447;-44
2021/04/02 05:21:18;;;;;;;5.50;4.00;;;15.10;42.00;;;;;;5031519;28;20447;-45
2021/04/02 05:23:43;;;;;;;5.27;4.57;;;15.20;42.00;;;;;;5038384;28;20444;-43
2021/04/02 05:26:12;;;;;;;7.17;4.50;;;15.10;41.90;;;;;;5034278;28;20216;-44
2021/04/02 05:28:38;;;;;;;5.07;4.57;;;15.10;41.90;;;;;;5033176;28;20569;-42
2021/04/02 05:31:04;;;;;;;5.20;3.93;;;15.10;41.90;;;;;;5036522;28;20871;-42
2021/04/02 05:33:29;;;;;;;9.53;4.53;;;15.10;41.90;;;;;;5046950;28;20303;-43
2021/04/02 05:35:55;;;;;;;5.33;4.40;;;15.10;41.90;;;;;;5037976;28;20518;-42
2021/04/02 05:38:21;;;;;;;5.57;4.10;;;15.20;41.90;;;;;;5038201;28;20192;-42
2021/04/02 05:40:46;;;;;;;7.20;3.00;;;15.20;42.80;;;;;;5036628;28;20188;-41
2021/04/02 05:43:28;;;;;;;7.83;3.53;;;15.20;49.10;;;;;;5044250;28;20672;-41
2021/04/02 05:45:56;;;;;;;7.20;4.73;;;15.70;45.40;;;;;;5049661;28;20610;-42
2021/04/02 05:48:23;;;;;;;5.10;4.30;;;16.30;42.80;;;;;;5042021;28;20447;-43
2021/04/02 05:50:53;;;;;;;5.80;3.70;;;16.60;41.60;;;;;;5039231;28;20435;-42
2021/04/02 05:53:21;;;;;;;5.40;3.63;;;16.90;42.90;;;;;;5042927;28;20455;-45
2021/04/02 05:55:48;;;;;;;5.90;4.87;;;17.20;41.10;;;;;;5041178;28;20524;-43
2021/04/02 05:58:14;;;;;;;5.27;3.47;;;17.40;39.00;;;;;;5044748;28;20451;-42
2021/04/02 06:00:40;;;;;;;4.20;3.60;;;17.40;38.90;;;;;;5044463;28;20462;-42
2021/04/02 06:03:08;;;;;;;5.47;4.97;;;17.60;38.60;;;;;;5045566;28;20197;-42
2021/04/02 06:05:34;;;;;;;7.57;5.40;;;17.80;38.20;;;;;;5029048;28;20452;-43
2021/04/02 06:08:00;;;;;;;4.70;4.10;;;17.90;37.60;;;;;;5036457;28;20809;-42
2021/04/02 06:10:26;;;;;;;4.77;4.37;;;17.90;37.20;;;;;;5045852;28;20496;-43
2021/04/02 06:12:55;;;;;;;5.93;4.20;;;17.90;37.40;;;;;;5038438;28;20197;-42
2021/04/02 06:15:22;;;;;;;5.87;3.87;;;18.10;37.50;;;;;;5033345;28;20467;-44
2021/04/02 06:17:57;;;;;;;6.20;4.57;;;18.10;37.20;;;;;;5035973;28;20454;-44
2021/04/02 06:20:28;;;;;;;5.93;5.33;;;18.30;37.20;;;;;;5044615;28;21227;-42
2021/04/02 06:23:12;;;;;;;4.93;4.37;;;18.40;36.90;;;;;;5040935;28;20508;-43
2021/04/02 06:25:40;;;;;;;7.07;5.40;;;18.40;36.90;;;;;;5041922;28;20450;-42
2021/04/02 06:28:10;;;;;;;6.27;5.20;;;18.50;36.60;;;;;;5040920;28;20946;-42
2021/04/02 06:30:38;;;;;;;5.53;3.73;;;18.60;36.50;;;;;;5038625;28;20486;-43
2021/04/02 06:33:07;;;;;;;5.37;4.63;;;18.70;36.50;;;;;;5035991;28;20470;-44
2021/04/02 06:35:35;;;;;;;5.77;4.23;;;18.70;36.40;;;;;;5032756;28;20535;-44
2021/04/02 06:38:01;;;;;;;6.43;4.40;;;18.80;36.30;;;;;;5046008;28;20469;-43
2021/04/02 06:40:29;;;;;;;4.93;4.53;;;19.00;36.30;;;;;;5042616;28;20845;-43
2021/04/02 06:42:58;;;;;;;5.07;4.57;;;19.10;36.10;;;;;;5042566;28;20445;-42
2021/04/02 06:45:24;;;;;;;5.30;4.80;;;19.10;35.80;;;;;;5040845;28;21029;-43
2021/04/02 06:47:49;;;;;;;6.33;5.27;;;19.20;36.10;;;;;;5046806;28;20621;-42
2021/04/02 06:50:21;;;;;;;7.27;5.67;;;19.30;36.10;;;;;;5045110;28;20275;-44
2021/04/02 06:52:55;;;;;;;5.37;4.83;;;19.40;36.00;;;;;;5037359;28;20259;-43
2021/04/02 06:55:22;;;;;;;6.17;4.80;;;19.60;35.90;;;;;;5040277;28;20442;-42
2021/04/02 06:57:54;;;;;;;5.07;4.57;;;19.70;35.60;;;;;;5042475;28;20439;-43
2021/04/02 07:00:25;;;;;;;7.17;4.90;;;19.80;35.60;;;;;;5046273;28;20478;-42
2021/04/02 07:02:52;;;;;;;6.40;5.90;;;19.90;35.50;;;;;;5033305;28;20825;-42
2021/04/02 07:05:21;;;;;;;5.63;5.13;;;20.10;35.10;;;;;;5044196;28;20450;-42
2021/04/02 07:07:56;;;;;;;5.90;5.33;;;19.90;35.10;;;;;;5037993;28;20869;-43
2021/04/02 07:10:22;;;;;;;10.57;6.27;;;20.00;34.90;;;;;;5034888;28;20450;-42
2021/04/02 07:12:51;;;;;;;5.40;4.90;;;20.00;34.90;;;;;;5035339;28;20424;-42
2021/04/02 07:15:18;;;;;;;7.33;6.53;;;20.20;35.10;;;;;;5036902;28;20433;-42
2021/04/02 07:17:48;;;;;;;7.33;6.23;;;20.20;35.00;;;;;;5040286;28;20432;-42
2021/04/02 07:20:15;;;;;;;6.63;5.43;;;20.30;35.40;;;;;;5038384;28;20472;-42
2021/04/02 07:22:43;;;;;;;6.30;5.80;;;20.40;34.60;;;;;;5046667;28;20446;-43
2021/04/02 07:25:11;;;;;;;8.30;5.87;;;20.50;34.30;;;;;;5041889;28;20450;-41
2021/04/02 07:27:37;;;;;;;6.60;5.77;;;20.40;34.50;;;;;;5044242;28;20486;-42
2021/04/02 07:30:05;;;;;;;7.17;6.10;;;20.30;34.60;;;;;;5049963;28;20458;-43
2021/04/02 07:32:31;;;;;;;8.27;7.57;;;20.40;34.90;;;;;;5043038;28;20958;-42
2021/04/02 07:34:58;;;;;;;4.93;4.37;;;20.30;35.00;;;;;;5047081;28;20487;-43
2021/04/02 07:37:23;;;;;;;6.70;6.07;;;20.40;35.10;;;;;;5045405;28;20434;-42
2021/04/02 07:39:53;;;;;;;6.80;6.20;;;20.50;35.00;;;;;;5046939;28;20427;-42
2021/04/02 07:42:22;;;;;;;5.57;5.07;;;20.60;34.50;;;;;;5037061;28;20192;-42
2021/04/02 07:44:54;;;;;;;7.07;6.37;;;20.50;34.80;;;;;;5049869;28;20509;-42
2021/04/02 07:47:23;;;;;;;7.80;6.57;;;20.50;34.60;;;;;;5034399;28;20513;-42
2021/04/02 07:49:49;;;;;;;7.40;6.70;;;20.60;34.50;;;;;;5038815;28;20439;-42
2021/04/02 07:52:15;;;;;;;7.73;6.90;;;20.80;34.20;;;;;;5045200;28;20435;-42
2021/04/02 07:54:44;;;;;;;7.23;6.40;;;20.80;33.70;;;;;;5040383;28;20473;-42
2021/04/02 07:57:10;;;;;;;7.10;6.47;;;20.90;33.90;;;;;;5049856;28;20493;-45
2021/04/02 07:59:41;;;;;;;7.73;7.03;;;21.00;33.70;;;;;;5046340;28;20419;-42
2021/04/02 08:02:17;;;;;;;8.13;6.83;;;21.10;33.50;;;;;;5048304;28;20672;-44
2021/04/02 08:04:53;;;;;;;10.10;7.07;;;21.10;33.70;;;;;;5047313;28;20445;-42
2021/04/02 08:07:30;;;;;;;6.77;6.07;;;20.80;34.10;;;;;;5050703;28;20815;-44
2021/04/02 08:09:56;;;;;;;7.30;6.60;;;20.90;33.90;;;;;;5050935;28;20525;-43
2021/04/02 08:12:22;;;;;;;9.10;5.97;;;20.90;34.30;;;;;;5051024;28;20545;-44
2021/04/02 08:14:50;;;;;;;8.33;7.40;;;21.00;34.20;;;;;;5049344;28;20219;-42
2021/04/02 08:17:23;;;;;;;8.43;6.50;;;21.20;34.10;;;;;;5043660;28;20935;-42
2021/04/02 08:19:49;;;;;;;7.73;6.83;;;21.20;34.30;;;;;;5045189;28;20901;-42
2021/04/02 08:22:18;;;;;;;9.47;6.83;;;21.20;33.80;;;;;;5049837;28;20447;-43
2021/04/02 08:24:48;;;;;;;7.60;6.80;;;21.20;34.30;;;;;;5053136;28;20449;-42
2021/04/02 08:27:15;;;;;;;7.13;6.50;;;21.20;34.20;;;;;;5051519;28;20494;-42
2021/04/02 08:29:43;;;;;;;8.47;7.67;;;21.30;34.00;;;;;;5047795;28;20439;-43
2021/04/02 08:32:10;;;;;;;7.73;7.03;;;21.30;33.40;;;;;;5050679;28;20474;-43
2021/04/02 08:34:37;;;;;;;7.80;6.90;;;21.30;33.30;;;;;;5051958;28;20442;-43
2021/04/02 08:37:08;;;;;;;8.03;6.57;;;21.30;34.00;;;;;;5041045;28;20464;-43
2021/04/02 08:39:35;;;;;;;8.70;7.80;;;21.20;34.70;;;;;;5051051;28;20432;-44
2021/04/02 08:42:07;;;;;;;9.07;8.10;;;21.20;34.30;;;;;;5037254;28;20431;-43
2021/04/02 08:44:37;;;;;;;7.57;6.90;;;21.30;34.90;;;;;;5050404;28;20447;-43
2021/04/02 08:47:06;;;;;;;8.53;7.63;;;21.30;35.00;;;;;;5051150;28;20482;-43
2021/04/02 08:49:41;;;;;;;8.80;7.00;;;21.30;35.20;;;;;;5060279;28;20429;-43
2021/04/02 08:52:29;;;;;;;9.30;8.40;;;21.40;35.00;;;;;;5050120;28;20437;-42
2021/04/02 08:55:01;;;;;;;8.20;7.40;;;21.50;35.00;;;;;;5048105;28;20447;-44
2021/04/02 08:57:29;;;;;;;8.17;7.47;;;21.10;35.20;;;;;;5043099;28;20798;-43
2021/04/02 08:59:56;;;;;;;9.63;8.00;;;21.00;35.50;;;;;;5052104;28;20433;-45
2021/04/02 09:02:27;;;;;;;9.33;8.40;;;21.20;35.70;;;;;;5049413;28;20556;-44
2021/04/02 09:04:53;;;;;;;9.53;8.53;;;21.30;34.50;;;;;;5045091;28;20834;-47
2021/04/02 09:07:19;;;;;;;14.33;8.23;;;21.20;34.90;;;;;;5043580;28;20482;-42
2021/04/02 09:09:47;;;;;;;9.50;8.50;;;21.00;34.30;;;;;;5042653;28;21135;-43
2021/04/02 09:12:18;;;;;;;9.47;8.17;;;21.20;34.50;;;;;;5043687;28;20694;-43
2021/04/02 09:14:49;;;;;;;10.43;9.03;;;21.40;35.00;;;;;;5045089;28;20471;-44
2021/04/02 09:17:21;;;;;;;12.23;9.17;;;21.50;34.50;;;;;;5045366;28;20469;-43
2021/04/02 09:19:47;;;;;;;9.30;8.40;;;21.30;33.40;;;;;;5045438;28;20446;-43
2021/04/02 09:22:13;;;;;;;9.20;8.30;;;21.40;33.60;;;;;;5042737;28;20447;-42
2021/04/02 09:24:41;;;;;;;8.20;7.40;;;21.10;34.30;;;;;;5039681;28;20610;-44
2021/04/02 09:27:09;;;;;;;9.87;8.00;;;21.20;34.30;;;;;;5046174;28;20486;-42
2021/04/02 09:29:35;;;;;;;8.87;8.03;;;21.40;34.00;;;;;;5047549;28;20427;-43
2021/04/02 09:32:03;;;;;;;8.57;7.73;;;21.60;33.70;;;;;;5044614;28;20485;-43
2021/04/02 09:34:29;;;;;;;7.90;7.20;;;21.50;34.10;;;;;;5046097;28;20195;-42
2021/04/02 09:36:55;;;;;;;10.97;8.43;;;21.80;33.90;;;;;;5037082;28;21023;-43
2021/04/02 09:39:23;;;;;;;9.20;8.30;;;21.70;33.40;;;;;;5048562;28;20201;-46
2021/04/02 09:41:51;;;;;;;8.63;7.90;;;21.90;33.10;;;;;;5041896;28;20427;-43
2021/04/02 09:44:19;;;;;;;9.93;8.90;;;22.20;32.60;;;;;;5051110;28;20796;-45
2021/04/02 09:46:47;;;;;;;8.00;7.17;;;22.10;31.10;;;;;;5043477;28;20509;-45
2021/04/02 09:49:21;;;;;;;8.77;7.97;;;21.90;32.10;;;;;;5039049;28;20518;-44
2021/04/02 09:51:53;;;;;;;8.67;7.80;;;22.10;32.30;;;;;;5036130;28;21003;-43
2021/04/02 09:54:20;;;;;;;10.10;7.90;;;22.20;32.90;;;;;;5044637;28;20436;-43
2021/04/02 09:56:47;;;;;;;8.93;8.13;;;22.40;32.40;;;;;;5045728;28;20475;-46
2021/04/02 09:59:14;;;;;;;7.70;6.90;;;22.70;31.30;;;;;;5048011;28;20427;-44
2021/04/02 10:01:41;;;;;;;8.07;7.37;;;23.00;31.20;;;;;;5037205;28;20478;-43
2021/04/02 10:04:08;;;;;;;9.23;8.33;;;23.10;30.10;;;;;;5038554;28;20947;-44
2021/04/02 10:06:35;;;;;;;11.70;8.03;;;23.20;29.90;;;;;;5035466;28;20495;-42
2021/04/02 10:09:02;;;;;;;8.40;7.60;;;23.20;30.60;;;;;;5046794;28;20520;-42
2021/04/02 10:11:28;;;;;;;9.03;7.83;;;23.20;30.80;;;;;;5044941;28;20473;-43
2021/04/02 10:13:53;;;;;;;9.17;8.13;;;23.10;30.30;;;;;;5041719;28;20432;-43
2021/04/02 10:16:20;;;;;;;8.17;7.37;;;22.80;30.10;;;;;;5042024;28;20435;-45
2021/04/02 10:18:48;;;;;;;7.97;7.27;;;22.70;30.20;;;;;;5042361;28;20254;-44
2021/04/02 10:21:13;;;;;;;8.47;7.77;;;22.50;31.30;;;;;;5039246;28;20431;-43
2021/04/02 10:23:39;;;;;;;8.70;7.90;;;22.60;30.70;;;;;;5037127;28;20445;-43
2021/04/02 10:26:05;;;;;;;9.33;7.40;;;22.40;30.20;;;;;;5041408;28;20271;-43
2021/04/02 10:28:31;;;;;;;8.73;7.93;;;22.50;32.20;;;;;;5041998;28;20980;-43
2021/04/02 10:30:58;;;;;;;7.93;7.30;;;22.70;31.60;;;;;;5035776;28;20198;-44
2021/04/02 10:33:23;;;;;;;8.83;8.03;;;23.00;31.40;;;;;;5038598;28;20472;-42
2021/04/02 10:35:49;;;;;;;8.73;7.80;;;23.40;31.20;;;;;;5042440;28;20470;-44
2021/04/02 10:38:15;;;;;;;8.70;7.73;;;23.60;31.10;;;;;;5038280;28;20196;-45
2021/04/02 10:40:41;;;;;;;9.40;8.43;;;23.90;31.50;;;;;;5038206;28;20255;-44
2021/04/02 10:43:08;;;;;;;10.13;8.40;;;24.00;29.80;;;;;;5036245;28;20435;-48
2021/04/02 10:45:34;;;;;;;8.13;7.37;;;24.20;29.30;;;;;;5046847;28;20454;-45
2021/04/02 10:48:00;;;;;;;9.30;7.70;;;24.20;29.10;;;;;;5038499;28;21280;-44
2021/04/02 10:50:27;;;;;;;9.00;8.20;;;24.20;29.40;;;;;;5042591;28;20711;-47
2021/04/02 10:52:54;;;;;;;7.87;7.17;;;24.10;29.60;;;;;;5036633;28;20432;-46
2021/04/02 10:55:20;;;;;;;8.20;7.40;;;24.10;29.30;;;;;;5036230;28;20545;-43
2021/04/02 10:57:46;;;;;;;8.27;7.20;;;24.20;29.40;;;;;;5036572;28;20424;-44
2021/04/02 11:00:13;;;;;;;8.10;7.40;;;24.00;30.00;;;;;;5046538;28;20526;-44
2021/04/02 11:02:39;;;;;;;7.13;6.53;;;24.00;30.60;;;;;;5047753;28;20196;-43
2021/04/02 11:05:06;;;;;;;8.77;7.70;;;23.80;29.60;;;;;;5047305;28;20512;-44
2021/04/02 11:07:33;;;;;;;9.67;8.77;;;23.80;29.40;;;;;;5047354;28;21128;-45
2021/04/02 11:09:59;;;;;;;8.60;7.87;;;23.40;29.00;;;;;;5034985;28;20444;-44
2021/04/02 11:12:31;;;;;;;8.70;7.80;;;23.30;30.00;;;;;;5042103;28;20448;-44
2021/04/02 11:14:57;;;;;;;9.10;8.33;;;23.30;30.00;;;;;;5049093;28;20645;-46
2021/04/02 11:17:23;;;;;;;7.90;7.17;;;23.00;30.00;;;;;;5042890;28;20848;-43
2021/04/02 11:19:50;;;;;;;8.27;7.47;;;23.20;30.80;;;;;;5043350;28;20424;-44
2021/04/02 11:22:16;;;;;;;7.53;6.83;;;23.50;30.40;;;;;;5046980;28;20470;-44
2021/04/02 11:24:42;;;;;;;9.37;8.50;;;23.50;29.90;;;;;;5034509;28;20468;-44
2021/04/02 11:27:08;;;;;;;7.83;7.13;;;23.60;29.80;;;;;;5035393;28;20236;-50
2021/04/02 11:29:34;;;;;;;8.67;7.87;;;23.70;29.90;;;;;;5039993;28;20188;-43
2021/04/02 11:32:00;;;;;;;7.33;6.73;;;23.70;29.00;;;;;;5039407;28;20439;-44
2021/04/02 11:34:26;;;;;;;8.17;7.47;;;23.70;29.60;;;;;;5039484;28;20442;-43
2021/04/02 11:36:52;;;;;;;6.97;6.37;;;23.80;29.50;;;;;;5048300;28;20200;-44
2021/04/02 11:39:17;;;;;;;7.40;6.70;;;23.80;29.40;;;;;;5042454;28;20434;-42
2021/04/02 11:41:43;;;;;;;6.73;6.13;;;23.90;29.20;;;;;;5046388;28;20192;-42
2021/04/02 11:44:09;;;;;;;7.50;6.80;;;24.00;29.90;;;;;;5039191;28;20239;-43
2021/04/02 11:46:34;;;;;;;6.20;5.63;;;24.00;28.80;;;;;;5045089;28;20299;-43
2021/04/02 11:49:00;;;;;;;6.30;5.80;;;24.00;29.00;;;;;;5037908;28;20208;-43
2021/04/02 11:51:26;;;;;;;7.07;6.37;;;24.00;28.70;;;;;;5044545;28;20655;-43
2021/04/02 11:53:52;;;;;;;6.13;5.57;;;24.20;29.10;;;;;;5047250;28;20446;-44
2021/04/02 11:56:17;;;;;;;6.17;5.67;;;24.40;29.10;;;;;;5049071;28;20185;-43
2021/04/02 11:58:43;;;;;;;7.10;6.43;;;24.50;29.10;;;;;;5049010;28;20263;-43
2021/04/02 12:01:08;;;;;;;6.77;6.27;;;24.70;28.20;;;;;;5052295;28;20196;-43
2021/04/02 12:03:34;;;;;;;5.50;5.10;;;24.80;27.60;;;;;;5046559;28;20201;-42
2021/04/02 12:06:00;;;;;;;5.87;5.37;;;24.60;28.00;;;;;;5050871;28;20727;-44
2021/04/02 12:08:25;;;;;;;5.47;4.97;;;24.50;28.10;;;;;;5047365;28;20315;-43
2021/04/02 12:10:53;;;;;;;5.70;5.20;;;24.40;27.60;;;;;;5044738;28;20671;-42
2021/04/02 12:13:19;;;;;;;5.20;4.80;;;24.20;27.80;;;;;;5045996;28;20204;-43
2021/04/02 12:15:44;;;;;;;5.43;5.03;;;24.20;27.20;;;;;;5042950;28;20428;-42
2021/04/02 12:18:10;;;;;;;5.77;5.27;;;24.20;27.20;;;;;;5043238;28;20196;-42
2021/04/02 12:20:36;;;;;;;5.30;4.90;;;24.10;27.10;;;;;;5037825;28;20197;-43
2021/04/02 12:23:02;;;;;;;5.33;4.67;;;24.20;27.30;;;;;;5041955;28;20211;-43
2021/04/02 12:25:28;;;;;;;5.23;4.77;;;24.30;27.50;;;;;;5042784;28;20562;-43
2021/04/02 12:27:54;;;;;;;5.37;4.97;;;24.10;27.10;;;;;;5039347;28;20236;-43
2021/04/02 12:30:20;;;;;;;5.20;4.77;;;24.00;27.10;;;;;;5037374;28;20443;-42
2021/04/02 12:32:45;;;;;;;6.60;5.67;;;23.70;26.60;;;;;;5037244;28;20223;-41
2021/04/02 12:35:12;;;;;;;5.50;4.80;;;23.80;26.80;;;;;;5043491;28;20646;-42
2021/04/02 12:37:39;;;;;;;5.40;5.00;;;24.00;27.00;;;;;;5044500;28;20197;-41
2021/04/02 12:40:22;;;;;;;5.67;5.17;;;23.90;26.30;;;;;;5045631;28;20434;-43
2021/04/02 12:42:48;;;;;;;4.90;4.50;;;24.00;26.70;;;;;;5043053;28;20441;-43
2021/04/02 12:45:14;;;;;;;4.90;4.47;;;24.00;26.70;;;;;;5042659;28;20784;-44
2021/04/02 12:47:41;;;;;;;4.83;4.47;;;23.70;27.50;;;;;;5037928;28;20239;-43